createdAt,value
2018-04-10T00:00:26.611Z,960.09
2018-04-10T00:01:26.602Z,960.08
2018-04-10T00:02:26.599Z,960.05
2018-04-10T00:03:26.586Z,960.05
2018-04-10T00:04:26.578Z,960.04
2018-04-10T00:05:26.571Z,960.03
2018-04-10T00:06:26.569Z,960.03
2018-04-10T00:07:26.555Z,960.00
2018-04-10T00:08:26.555Z,960.03
2018-04-10T00:09:26.544Z,960.07
2018-04-10T00:10:26.534Z,960.04
2018-04-10T00:11:26.521Z,960.05
2018-04-10T00:12:26.513Z,960.06
2018-04-10T00:13:26.506Z,960.05
2018-04-10T00:14:26.503Z,960.05
2018-04-10T00:15:26.490Z,960.10
2018-04-10T00:16:26.481Z,960.06
2018-04-10T00:17:26.480Z,960.07
2018-04-10T00:18:26.469Z,960.01
2018-04-10T00:19:26.462Z,960.02
2018-04-10T00:20:26.455Z,959.99
2018-04-10T00:21:26.446Z,959.99
2018-04-10T00:22:26.436Z,959.96
2018-04-10T00:23:26.422Z,959.94
2018-04-10T00:24:26.415Z,959.93
2018-04-10T00:25:26.409Z,959.95
2018-04-10T00:26:26.405Z,959.99
2018-04-10T00:27:26.391Z,959.91
2018-04-10T00:28:26.383Z,959.95
2018-04-10T00:29:26.374Z,959.94
2018-04-10T00:30:26.368Z,959.92
2018-04-10T00:31:26.360Z,959.94
2018-04-10T00:32:26.357Z,959.92
2018-04-10T00:33:26.347Z,959.94
2018-04-10T00:34:26.335Z,959.92
2018-04-10T00:35:26.326Z,959.96
2018-04-10T00:36:26.317Z,959.91
2018-04-10T00:37:26.315Z,959.97
2018-04-10T00:38:26.302Z,959.96
2018-04-10T00:39:26.295Z,959.98
2018-04-10T00:40:26.284Z,960.01
2018-04-10T00:41:26.276Z,959.96
2018-04-10T00:42:26.271Z,959.97
2018-04-10T00:43:26.258Z,959.95
2018-04-10T00:44:26.250Z,959.91
2018-04-10T00:45:26.249Z,959.95
2018-04-10T00:46:26.232Z,959.92
2018-04-10T00:47:26.225Z,959.94
2018-04-10T00:48:26.217Z,959.90
2018-04-10T00:49:26.212Z,959.91
2018-04-10T00:50:26.206Z,959.88
2018-04-10T00:51:26.194Z,959.87
2018-04-10T00:52:26.189Z,959.89
2018-04-10T00:53:26.176Z,959.91
2018-04-10T00:54:26.166Z,959.90
2018-04-10T00:55:26.164Z,959.87
2018-04-10T00:56:26.153Z,959.87
2018-04-10T00:57:26.142Z,959.90
2018-04-10T00:58:26.135Z,959.87
2018-04-10T00:59:26.132Z,959.90
2018-04-10T01:00:26.117Z,959.88
2018-04-10T01:01:26.109Z,959.90
2018-04-10T01:02:26.100Z,959.88
2018-04-10T01:03:26.092Z,959.86
2018-04-10T01:04:26.082Z,959.87
2018-04-10T01:05:26.074Z,959.84
2018-04-10T01:06:26.067Z,959.85
2018-04-10T01:07:26.065Z,959.85
2018-04-10T01:08:26.049Z,959.89
2018-04-10T01:09:26.043Z,959.86
2018-04-10T01:10:26.031Z,959.88
2018-04-10T01:11:26.029Z,959.87
2018-04-10T01:12:26.016Z,959.86
2018-04-10T01:13:26.007Z,959.87
2018-04-10T01:14:25.998Z,959.84
2018-04-10T01:15:25.991Z,959.93
2018-04-10T01:16:25.983Z,959.92
2018-04-10T01:17:25.976Z,959.95
2018-04-10T01:18:25.964Z,959.91
2018-04-10T01:19:25.958Z,959.90
2018-04-10T01:20:25.948Z,959.90
2018-04-10T01:21:25.937Z,959.87
2018-04-10T01:22:25.930Z,959.88
2018-04-10T01:23:25.930Z,959.88
2018-04-10T01:24:25.913Z,959.87
2018-04-10T01:25:25.903Z,959.90
2018-04-10T01:26:25.896Z,959.90
2018-04-10T01:27:25.892Z,959.94
2018-04-10T01:28:25.885Z,959.93
2018-04-10T01:29:25.875Z,959.95
2018-04-10T01:30:25.868Z,959.90
2018-04-10T01:31:25.858Z,959.93
2018-04-10T01:32:25.843Z,959.92
2018-04-10T01:33:25.837Z,959.93
2018-04-10T01:34:25.829Z,959.89
2018-04-10T01:35:25.823Z,959.93
2018-04-10T01:36:25.815Z,959.89
2018-04-10T01:37:25.799Z,959.87
2018-04-10T01:38:25.795Z,959.85
2018-04-10T01:39:25.787Z,959.81
2018-04-10T01:40:25.779Z,959.82
2018-04-10T01:41:25.763Z,959.81
2018-04-10T01:42:25.756Z,959.80
2018-04-10T01:43:25.745Z,959.82
2018-04-10T01:44:25.738Z,959.81
2018-04-10T01:45:25.728Z,959.79
2018-04-10T01:46:25.728Z,959.74
2018-04-10T01:47:25.711Z,959.72
2018-04-10T01:48:25.703Z,959.74
2018-04-10T01:49:25.694Z,959.71
2018-04-10T01:50:25.684Z,959.72
2018-04-10T01:51:25.937Z,959.67
2018-04-10T01:52:25.666Z,959.68
2018-04-10T01:53:25.663Z,959.69
2018-04-10T01:54:25.657Z,959.69
2018-04-10T01:55:25.641Z,959.69
2018-04-10T01:56:25.639Z,959.65
2018-04-10T01:57:25.622Z,959.69
2018-04-10T01:58:25.615Z,959.69
2018-04-10T01:59:25.615Z,959.70
2018-04-10T02:00:25.598Z,959.67
2018-04-10T02:01:25.590Z,959.65
2018-04-10T02:02:25.579Z,959.67
2018-04-10T02:03:25.576Z,959.70
2018-04-10T02:04:25.565Z,959.68
2018-04-10T02:05:25.552Z,959.63
2018-04-10T02:06:25.542Z,959.62
2018-04-10T02:07:25.534Z,959.60
2018-04-10T02:08:25.530Z,959.59
2018-04-10T02:09:25.536Z,959.52
2018-04-10T02:10:25.509Z,959.51
2018-04-10T02:11:25.505Z,959.50
2018-04-10T02:12:25.496Z,959.44
2018-04-10T02:13:25.488Z,959.43
2018-04-10T02:14:25.478Z,959.39
2018-04-10T02:15:25.462Z,959.38
2018-04-10T02:16:25.452Z,959.35
2018-04-10T02:17:25.456Z,959.35
2018-04-10T02:18:25.436Z,959.32
2018-04-10T02:19:25.433Z,959.29
2018-04-10T02:20:25.418Z,959.27
2018-04-10T02:21:25.408Z,959.24
2018-04-10T02:22:25.400Z,959.20
2018-04-10T02:23:25.393Z,959.15
2018-04-10T02:24:25.387Z,959.09
2018-04-10T02:25:25.378Z,959.07
2018-04-10T02:26:25.364Z,959.06
2018-04-10T02:27:25.357Z,959.02
2018-04-10T02:28:25.350Z,958.97
2018-04-10T02:29:25.341Z,958.97
2018-04-10T02:30:25.328Z,958.98
2018-04-10T02:31:25.317Z,958.94
2018-04-10T02:32:25.312Z,958.93
2018-04-10T02:33:25.300Z,958.92
2018-04-10T02:34:25.323Z,958.91
2018-04-10T02:35:25.281Z,958.86
2018-04-10T02:36:25.274Z,958.83
2018-04-10T02:37:25.271Z,958.76
2018-04-10T02:38:25.253Z,958.69
2018-04-10T02:39:25.249Z,958.63
2018-04-10T02:40:25.240Z,958.59
2018-04-10T02:41:25.227Z,958.51
2018-04-10T02:42:25.216Z,958.51
2018-04-10T02:43:25.207Z,958.50
2018-04-10T02:44:25.216Z,958.45
2018-04-10T02:45:25.188Z,958.43
2018-04-10T02:46:25.185Z,958.45
2018-04-10T02:47:25.171Z,958.43
2018-04-10T02:48:25.161Z,958.46
2018-04-10T02:49:25.150Z,958.41
2018-04-10T02:50:25.141Z,958.37
2018-04-10T02:51:25.133Z,958.32
2018-04-10T02:52:25.130Z,958.32
2018-04-10T02:53:25.115Z,958.25
2018-04-10T02:54:25.106Z,958.22
2018-04-10T02:55:25.095Z,958.12
2018-04-10T02:56:25.089Z,958.02
2018-04-10T02:57:25.078Z,957.95
2018-04-10T02:58:25.069Z,957.90
2018-04-10T02:59:25.057Z,957.83
2018-04-10T03:00:25.049Z,957.75
2018-04-10T03:01:25.037Z,957.65
2018-04-10T03:02:25.029Z,957.60
2018-04-10T03:03:25.022Z,957.50
2018-04-10T03:04:25.010Z,957.52
2018-04-10T03:05:25.005Z,957.48
2018-04-10T03:06:24.991Z,957.49
2018-04-10T03:07:24.981Z,957.49
2018-04-10T03:08:24.974Z,957.52
2018-04-10T03:09:24.966Z,957.57
2018-04-10T03:10:24.954Z,957.61
2018-04-10T03:11:24.948Z,957.64
2018-04-10T03:12:24.933Z,957.71
2018-04-10T03:13:24.925Z,957.71
2018-04-10T03:14:24.914Z,957.70
2018-04-10T03:15:24.908Z,957.74
2018-04-10T03:16:24.902Z,957.70
2018-04-10T03:17:24.887Z,957.72
2018-04-10T03:18:24.879Z,957.74
2018-04-10T03:19:24.866Z,957.77
2018-04-10T03:20:24.859Z,957.76
2018-04-10T03:21:24.845Z,957.76
2018-04-10T03:22:24.837Z,957.71
2018-04-10T03:23:24.830Z,957.70
2018-04-10T03:24:24.826Z,957.69
2018-04-10T03:25:24.808Z,957.73
2018-04-10T03:26:24.804Z,957.80
2018-04-10T03:27:24.790Z,957.93
2018-04-10T03:28:24.779Z,958.05
2018-04-10T03:29:24.768Z,958.17
2018-04-10T03:30:24.759Z,958.24
2018-04-10T03:31:24.748Z,958.28
2018-04-10T03:32:24.745Z,958.34
2018-04-10T03:33:24.729Z,958.36
2018-04-10T03:34:24.728Z,958.40
2018-04-10T03:35:24.715Z,958.50
2018-04-10T03:36:24.706Z,958.60
2018-04-10T03:37:24.695Z,958.66
2018-04-10T03:38:24.681Z,958.72
2018-04-10T03:39:24.671Z,958.78
2018-04-10T03:40:24.661Z,958.86
2018-04-10T03:41:24.653Z,958.89
2018-04-10T03:42:24.646Z,958.93
2018-04-10T03:43:24.631Z,958.92
2018-04-10T03:44:24.621Z,958.92
2018-04-10T03:45:24.615Z,958.90
2018-04-10T03:46:24.599Z,958.97
2018-04-10T03:47:24.599Z,958.98
2018-04-10T03:48:24.587Z,959.00
2018-04-10T03:49:24.572Z,959.01
2018-04-10T03:50:24.560Z,958.98
2018-04-10T03:51:24.549Z,958.97
2018-04-10T03:52:24.539Z,958.92
2018-04-10T03:53:24.531Z,958.83
2018-04-10T03:54:24.518Z,958.75
2018-04-10T03:55:24.508Z,958.70
2018-04-10T03:56:24.499Z,958.70
2018-04-10T03:57:24.488Z,958.66
2018-04-10T03:58:24.476Z,958.71
2018-04-10T03:59:24.466Z,958.74
2018-04-10T04:00:24.464Z,958.79
2018-04-10T04:01:24.451Z,958.85
2018-04-10T04:02:24.441Z,958.87
2018-04-10T04:03:24.432Z,958.87
2018-04-10T04:04:24.416Z,958.93
2018-04-10T04:05:24.410Z,958.92
2018-04-10T04:06:24.397Z,958.95
2018-04-10T04:07:24.383Z,958.96
2018-04-10T04:08:24.373Z,958.96
2018-04-10T04:09:24.363Z,958.95
2018-04-10T04:10:24.362Z,958.96
2018-04-10T04:11:24.344Z,958.98
2018-04-10T04:12:24.337Z,958.97
2018-04-10T04:13:24.319Z,958.99
2018-04-10T04:14:24.317Z,958.96
2018-04-10T04:15:24.300Z,958.93
2018-04-10T04:16:24.291Z,958.92
2018-04-10T04:17:24.284Z,958.91
2018-04-10T04:18:24.276Z,958.91
2018-04-10T04:19:24.259Z,958.93
2018-04-10T04:20:24.249Z,958.92
2018-04-10T04:21:24.244Z,958.94
2018-04-10T04:22:24.230Z,958.94
2018-04-10T04:23:24.226Z,958.92
2018-04-10T04:24:24.207Z,958.93
2018-04-10T04:25:24.198Z,958.93
2018-04-10T04:26:24.187Z,958.91
2018-04-10T04:27:24.182Z,958.95
2018-04-10T04:28:24.174Z,958.97
2018-04-10T04:29:24.155Z,958.96
2018-04-10T04:30:24.148Z,958.99
2018-04-10T04:31:24.137Z,958.95
2018-04-10T04:32:24.133Z,959.01
2018-04-10T04:33:24.116Z,959.02
2018-04-10T04:34:24.106Z,959.02
2018-04-10T04:35:24.098Z,959.02
2018-04-10T04:36:24.093Z,959.03
2018-04-10T04:37:24.073Z,959.02
2018-04-10T04:38:24.065Z,959.04
2018-04-10T04:39:24.056Z,958.99
2018-04-10T04:40:24.045Z,959.04
2018-04-10T04:41:24.037Z,958.99
2018-04-10T04:42:24.031Z,958.98
2018-04-10T04:43:24.012Z,959.02
2018-04-10T04:44:24.009Z,958.96
2018-04-10T04:45:23.991Z,958.96
2018-04-10T04:46:23.985Z,958.97
2018-04-10T04:47:23.979Z,958.92
2018-04-10T04:48:23.961Z,958.93
2018-04-10T04:49:23.955Z,958.91
2018-04-10T04:50:23.938Z,958.96
2018-04-10T04:51:23.928Z,958.93
2018-04-10T04:52:23.924Z,958.91
2018-04-10T04:53:23.905Z,958.93
2018-04-10T04:54:23.899Z,958.88
2018-04-10T04:55:23.886Z,958.90
2018-04-10T04:56:23.875Z,958.88
2018-04-10T04:57:23.865Z,958.86
2018-04-10T04:58:23.854Z,958.83
2018-04-10T04:59:23.850Z,958.81
2018-04-10T05:00:23.833Z,958.84
2018-04-10T05:01:23.825Z,958.82
2018-04-10T05:02:23.811Z,958.80
2018-04-10T05:03:23.798Z,958.78
2018-04-10T05:04:23.792Z,958.77
2018-04-10T05:05:23.784Z,958.79
2018-04-10T05:06:23.774Z,958.73
2018-04-10T05:07:23.757Z,958.73
2018-04-10T05:08:23.785Z,958.76
2018-04-10T05:09:23.737Z,958.75
2018-04-10T05:10:23.729Z,958.76
2018-04-10T05:11:23.724Z,958.76
2018-04-10T05:12:23.711Z,958.73
2018-04-10T05:13:23.695Z,958.69
2018-04-10T05:14:23.682Z,958.71
2018-04-10T05:15:23.707Z,958.69
2018-04-10T05:16:23.663Z,958.67
2018-04-10T05:17:23.655Z,958.67
2018-04-10T05:18:23.642Z,958.67
2018-04-10T05:19:23.632Z,958.64
2018-04-10T05:20:23.624Z,958.63
2018-04-10T05:21:23.609Z,958.61
2018-04-10T05:22:23.605Z,958.60
2018-04-10T05:23:23.589Z,958.58
2018-04-10T05:24:23.580Z,958.55
2018-04-10T05:25:23.571Z,958.55
2018-04-10T05:26:23.564Z,958.56
2018-04-10T05:27:23.553Z,958.60
2018-04-10T05:28:23.544Z,958.58
2018-04-10T05:29:23.527Z,958.56
2018-04-10T05:30:23.517Z,958.57
2018-04-10T05:31:23.503Z,958.56
2018-04-10T05:32:23.496Z,958.57
2018-04-10T05:33:23.483Z,958.55
2018-04-10T05:34:23.473Z,958.54
2018-04-10T05:35:23.461Z,958.53
2018-04-10T05:36:23.453Z,958.56
2018-04-10T05:37:23.449Z,958.56
2018-04-10T05:38:23.432Z,958.58
2018-04-10T05:39:23.420Z,958.55
2018-04-10T05:40:23.412Z,958.51
2018-04-10T05:41:23.400Z,958.50
2018-04-10T05:42:23.392Z,958.52
2018-04-10T05:43:23.385Z,958.53
2018-04-10T05:44:23.369Z,958.49
2018-04-10T05:45:23.365Z,958.50
2018-04-10T05:46:23.349Z,958.51
2018-04-10T05:47:23.340Z,958.49
2018-04-10T05:48:23.328Z,958.42
2018-04-10T05:49:23.317Z,958.45
2018-04-10T05:50:23.317Z,958.48
2018-04-10T05:51:23.304Z,958.49
2018-04-10T05:52:23.288Z,958.53
2018-04-10T05:53:23.278Z,958.56
2018-04-10T05:54:23.267Z,958.53
2018-04-10T05:55:23.257Z,958.53
2018-04-10T05:56:23.247Z,958.54
2018-04-10T05:57:23.237Z,958.54
2018-04-10T05:58:23.228Z,958.52
2018-04-10T05:59:23.247Z,958.53
2018-04-10T06:00:23.206Z,958.55
2018-04-10T06:01:23.199Z,958.55
2018-04-10T06:02:23.182Z,958.55
2018-04-10T06:03:23.172Z,958.52
2018-04-10T06:04:23.172Z,958.53
2018-04-10T06:05:23.153Z,958.54
2018-04-10T06:06:23.147Z,958.50
2018-04-10T06:07:23.136Z,958.49
2018-04-10T06:08:23.132Z,958.49
2018-04-10T06:09:23.115Z,958.44
2018-04-10T06:10:23.107Z,958.40
2018-04-10T06:11:23.102Z,958.41
2018-04-10T06:12:23.087Z,958.41
2018-04-10T06:13:23.079Z,958.46
2018-04-10T06:14:23.067Z,958.42
2018-04-10T06:15:23.060Z,958.49
2018-04-10T06:16:23.049Z,958.47
2018-04-10T06:17:23.039Z,958.44
2018-04-10T06:18:23.037Z,958.45
2018-04-10T06:19:23.024Z,958.44
2018-04-10T06:20:23.015Z,958.48
2018-04-10T06:21:23.053Z,958.47
2018-04-10T06:22:22.995Z,958.46
2018-04-10T06:23:22.985Z,958.47
2018-04-10T06:24:22.976Z,958.44
2018-04-10T06:25:22.972Z,958.43
2018-04-10T06:26:22.966Z,958.38
2018-04-10T06:27:22.951Z,958.38
2018-04-10T06:28:22.946Z,958.36
2018-04-10T06:29:22.936Z,958.39
2018-04-10T06:30:22.925Z,958.38
2018-04-10T06:31:22.917Z,958.39
2018-04-10T06:32:22.909Z,958.37
2018-04-10T06:33:22.907Z,958.38
2018-04-10T06:34:22.891Z,958.41
2018-04-10T06:35:22.882Z,958.42
2018-04-10T06:36:22.883Z,958.44
2018-04-10T06:37:22.886Z,958.45
2018-04-10T06:38:22.867Z,958.38
2018-04-10T06:39:22.847Z,958.31
2018-04-10T06:40:22.840Z,958.25
2018-04-10T06:41:22.833Z,958.15
2018-04-10T06:42:22.826Z,958.08
2018-04-10T06:43:22.818Z,957.99
2018-04-10T06:44:22.813Z,957.95
2018-04-10T06:45:22.804Z,957.97
2018-04-10T06:46:22.791Z,958.01
2018-04-10T06:47:22.788Z,958.00
2018-04-10T06:48:22.775Z,958.04
2018-04-10T06:49:22.768Z,958.12
2018-04-10T06:50:22.765Z,958.21
2018-04-10T06:51:22.754Z,958.23
2018-04-10T06:52:22.747Z,958.13
2018-04-10T06:53:22.733Z,958.09
2018-04-10T06:54:22.727Z,958.10
2018-04-10T06:55:22.720Z,958.04
2018-04-10T06:56:22.716Z,958.02
2018-04-10T06:57:22.709Z,958.01
2018-04-10T06:58:22.697Z,957.99
2018-04-10T06:59:22.699Z,958.01
2018-04-10T07:00:22.676Z,957.94
2018-04-10T07:01:22.669Z,958.00
2018-04-10T07:02:22.660Z,957.97
2018-04-10T07:03:22.659Z,957.92
2018-04-10T07:04:22.647Z,958.01
2018-04-10T07:05:22.638Z,958.04
2018-04-10T07:06:22.628Z,958.07
2018-04-10T07:07:22.625Z,958.13
2018-04-10T07:08:22.615Z,958.18
2018-04-10T07:09:22.604Z,958.21
2018-04-10T07:10:22.600Z,958.23
2018-04-10T07:11:22.598Z,958.24
2018-04-10T07:12:22.582Z,958.25
2018-04-10T07:13:22.634Z,958.25
2018-04-10T07:14:22.564Z,958.26
2018-04-10T07:15:22.561Z,958.19
2018-04-10T07:16:22.550Z,958.18
2018-04-10T07:17:22.552Z,958.16
2018-04-10T07:18:22.536Z,958.19
2018-04-10T07:19:22.533Z,958.24
2018-04-10T07:20:22.519Z,958.23
2018-04-10T07:21:22.512Z,958.25
2018-04-10T07:22:22.511Z,958.28
2018-04-10T07:23:22.504Z,958.35
2018-04-10T07:24:22.498Z,958.34
2018-04-10T07:25:22.482Z,958.37
2018-04-10T07:26:22.482Z,958.39
2018-04-10T07:27:22.469Z,958.34
2018-04-10T07:28:22.463Z,958.35
2018-04-10T07:29:22.459Z,958.37
2018-04-10T07:30:22.449Z,958.35
2018-04-10T07:31:22.450Z,958.38
2018-04-10T07:32:22.435Z,958.37
2018-04-10T07:33:22.426Z,958.39
2018-04-10T07:34:22.421Z,958.46
2018-04-10T07:35:22.414Z,958.45
2018-04-10T07:36:22.408Z,958.43
2018-04-10T07:37:22.407Z,958.46
2018-04-10T07:38:22.396Z,958.48
2018-04-10T07:39:22.388Z,958.47
2018-04-10T07:40:22.386Z,958.53
2018-04-10T07:41:22.375Z,958.46
2018-04-10T07:42:22.374Z,958.45
2018-04-10T07:43:22.371Z,958.45
2018-04-10T07:44:22.355Z,958.47
2018-04-10T07:45:22.349Z,958.53
2018-04-10T07:46:22.342Z,958.59
2018-04-10T07:47:22.342Z,958.57
2018-04-10T07:48:22.330Z,958.63
2018-04-10T07:49:22.320Z,958.68
2018-04-10T07:50:22.318Z,958.73
2018-04-10T07:51:22.326Z,958.77
2018-04-10T07:52:22.312Z,958.80
2018-04-10T07:53:22.295Z,958.80
2018-04-10T07:54:22.294Z,958.78
2018-04-10T07:55:22.283Z,958.79
2018-04-10T07:56:22.276Z,958.83
2018-04-10T07:57:22.273Z,958.89
2018-04-10T07:58:22.262Z,958.80
2018-04-10T07:59:22.258Z,958.79
2018-04-10T08:00:22.248Z,958.79
2018-04-10T08:01:22.243Z,958.79
2018-04-10T08:02:22.247Z,958.77
2018-04-10T08:03:22.277Z,958.81
2018-04-10T08:04:22.231Z,958.75
2018-04-10T08:05:22.217Z,958.70
2018-04-10T08:06:22.210Z,958.66
2018-04-10T08:07:22.209Z,958.64
2018-04-10T08:08:22.203Z,958.62
2018-04-10T08:09:22.189Z,958.71
2018-04-10T08:10:22.186Z,958.57
2018-04-10T08:11:22.182Z,958.61
2018-04-10T08:12:22.178Z,958.56
2018-04-10T08:13:22.164Z,958.52
2018-04-10T08:14:22.165Z,958.53
2018-04-10T08:15:22.156Z,958.46
2018-04-10T08:16:22.153Z,958.48
2018-04-10T08:17:22.144Z,958.52
2018-04-10T08:18:22.135Z,958.62
2018-04-10T08:19:22.128Z,958.58
2018-04-10T08:20:22.125Z,958.47
2018-04-10T08:21:22.113Z,958.48
2018-04-10T08:22:22.107Z,958.54
2018-04-10T08:23:22.097Z,958.59
2018-04-10T08:24:22.091Z,958.53
2018-04-10T08:25:22.085Z,958.44
2018-04-10T08:26:22.078Z,958.49
2018-04-10T08:27:22.073Z,958.44
2018-04-10T08:28:22.078Z,958.45
2018-04-10T08:29:22.056Z,958.41
2018-04-10T08:30:22.057Z,958.36
2018-04-10T08:31:22.042Z,958.40
2018-04-10T08:32:22.036Z,958.30
2018-04-10T08:33:22.031Z,958.34
2018-04-10T08:34:22.023Z,958.28
2018-04-10T08:35:22.015Z,958.39
2018-04-10T08:36:22.013Z,958.40
2018-04-10T08:37:22.001Z,958.34
2018-04-10T08:38:21.996Z,958.42
2018-04-10T08:39:21.989Z,958.34
2018-04-10T08:40:21.990Z,958.39
2018-04-10T08:41:21.974Z,958.34
2018-04-10T08:42:21.973Z,958.36
2018-04-10T08:43:21.968Z,958.33
2018-04-10T08:44:21.962Z,958.30
2018-04-10T08:45:21.949Z,958.31
2018-04-10T08:46:21.953Z,958.40
2018-04-10T08:47:21.933Z,958.35
2018-04-10T08:48:21.934Z,958.37
2018-04-10T08:49:21.920Z,958.33
2018-04-10T08:50:21.915Z,958.36
2018-04-10T08:51:21.911Z,958.37
2018-04-10T08:52:21.905Z,958.36
2018-04-10T08:53:21.897Z,958.27
2018-04-10T08:54:21.895Z,958.26
2018-04-10T08:55:21.885Z,958.31
2018-04-10T08:56:21.877Z,958.35
2018-04-10T08:57:21.869Z,958.34
2018-04-10T08:58:21.868Z,958.42
2018-04-10T08:59:21.858Z,958.37
2018-04-10T09:00:21.852Z,958.35
2018-04-10T09:01:21.846Z,958.35
2018-04-10T09:02:21.843Z,958.39
2018-04-10T09:03:21.835Z,958.42
2018-04-10T09:04:21.833Z,958.47
2018-04-10T09:05:21.826Z,958.41
2018-04-10T09:06:21.813Z,958.43
2018-04-10T09:07:21.809Z,958.46
2018-04-10T09:08:21.806Z,958.43
2018-04-10T09:09:21.845Z,958.43
2018-04-10T09:10:21.795Z,958.44
2018-04-10T09:11:21.783Z,958.47
2018-04-10T09:12:21.783Z,958.43
2018-04-10T09:13:21.779Z,958.39
2018-04-10T09:14:21.774Z,958.46
2018-04-10T09:15:21.757Z,958.42
2018-04-10T09:16:21.754Z,958.41
2018-04-10T09:17:21.746Z,958.38
2018-04-10T09:18:21.737Z,958.39
2018-04-10T09:19:21.732Z,958.38
2018-04-10T09:20:21.726Z,958.41
2018-04-10T09:21:21.721Z,958.43
2018-04-10T09:22:21.721Z,958.41
2018-04-10T09:23:21.712Z,958.46
2018-04-10T09:24:21.710Z,958.46
2018-04-10T09:25:21.701Z,958.44
2018-04-10T09:26:21.697Z,958.43
2018-04-10T09:27:21.693Z,958.44
2018-04-10T09:28:21.684Z,958.46
2018-04-10T09:29:21.678Z,958.49
2018-04-10T09:30:21.675Z,958.51
2018-04-10T09:31:21.670Z,958.49
2018-04-10T09:32:21.662Z,958.45
2018-04-10T09:33:21.657Z,958.51
2018-04-10T09:34:21.650Z,958.42
2018-04-10T09:35:21.645Z,958.42
2018-04-10T09:36:21.639Z,958.45
2018-04-10T09:37:21.633Z,958.48
2018-04-10T09:38:21.633Z,958.52
2018-04-10T09:39:21.630Z,958.57
2018-04-10T09:40:21.625Z,958.51
2018-04-10T09:41:21.614Z,958.47
2018-04-10T09:42:21.619Z,958.47
2018-04-10T09:43:21.607Z,958.52
2018-04-10T09:44:21.597Z,958.52
2018-04-10T09:45:21.594Z,958.49
2018-04-10T09:46:21.587Z,958.49
2018-04-10T09:47:21.588Z,958.44
2018-04-10T09:48:21.577Z,958.47
2018-04-10T09:49:21.571Z,958.43
2018-04-10T09:50:21.564Z,958.44
2018-04-10T09:51:21.567Z,958.42
2018-04-10T09:52:21.554Z,958.38
2018-04-10T09:53:21.554Z,958.36
2018-04-10T09:54:21.542Z,958.40
2018-04-10T09:55:21.545Z,958.34
2018-04-10T09:56:21.536Z,958.40
2018-04-10T09:57:21.525Z,958.38
2018-04-10T09:58:21.527Z,958.37
2018-04-10T09:59:21.513Z,958.39
2018-04-10T10:00:21.507Z,958.33
2018-04-10T10:01:21.501Z,958.23
2018-04-10T10:02:21.511Z,958.22
2018-04-10T10:03:21.496Z,958.25
2018-04-10T10:04:21.495Z,958.23
2018-04-10T10:05:21.481Z,958.20
2018-04-10T10:06:21.472Z,958.13
2018-04-10T10:07:21.466Z,958.23
2018-04-10T10:08:21.467Z,958.30
2018-04-10T10:09:21.455Z,958.26
2018-04-10T10:10:21.450Z,958.30
2018-04-10T10:11:21.448Z,958.29
2018-04-10T10:12:21.440Z,958.32
2018-04-10T10:13:21.431Z,958.30
2018-04-10T10:14:21.424Z,958.27
2018-04-10T10:15:21.418Z,958.26
2018-04-10T10:16:21.413Z,958.20
2018-04-10T10:17:21.408Z,958.24
2018-04-10T10:18:21.401Z,958.26
2018-04-10T10:19:21.394Z,958.29
2018-04-10T10:20:21.388Z,958.31
2018-04-10T10:21:21.383Z,958.29
2018-04-10T10:22:21.377Z,958.30
2018-04-10T10:23:21.372Z,958.22
2018-04-10T10:24:21.365Z,958.26
2018-04-10T10:25:21.359Z,958.24
2018-04-10T10:26:21.354Z,958.26
2018-04-10T10:27:21.350Z,958.32
2018-04-10T10:28:21.341Z,958.34
2018-04-10T10:29:21.341Z,958.27
2018-04-10T10:30:21.336Z,958.29
2018-04-10T10:31:21.325Z,958.34
2018-04-10T10:32:21.319Z,958.39
2018-04-10T10:33:21.324Z,958.37
2018-04-10T10:34:21.312Z,958.37
2018-04-10T10:35:21.305Z,958.32
2018-04-10T10:36:21.299Z,958.33
2018-04-10T10:37:21.294Z,958.38
2018-04-10T10:38:21.289Z,958.33
2018-04-10T10:39:21.284Z,958.32
2018-04-10T10:40:21.273Z,958.36
2018-04-10T10:41:21.266Z,958.29
2018-04-10T10:42:21.266Z,958.30
2018-04-10T10:43:21.258Z,958.32
2018-04-10T10:44:21.250Z,958.38
2018-04-10T10:45:21.244Z,958.33
2018-04-10T10:46:21.240Z,958.37
2018-04-10T10:47:21.238Z,958.32
2018-04-10T10:48:21.227Z,958.34
2018-04-10T10:49:21.224Z,958.35
2018-04-10T10:50:21.218Z,958.37
2018-04-10T10:51:21.214Z,958.44
2018-04-10T10:52:21.215Z,958.65
2018-04-10T10:53:21.209Z,958.51
2018-04-10T10:54:21.198Z,958.69
2018-04-10T10:55:21.194Z,958.74
2018-04-10T10:56:21.192Z,958.84
2018-04-10T10:57:21.194Z,958.83
2018-04-10T10:58:21.180Z,958.79
2018-04-10T10:59:21.183Z,958.76
2018-04-10T11:00:21.168Z,958.78
2018-04-10T11:01:21.164Z,958.85
2018-04-10T11:02:21.158Z,958.83
2018-04-10T11:03:21.156Z,958.84
2018-04-10T11:04:21.150Z,958.73
2018-04-10T11:05:21.151Z,958.85
2018-04-10T11:06:21.139Z,958.76
2018-04-10T11:07:21.133Z,958.88
2018-04-10T11:08:21.128Z,958.81
2018-04-10T11:09:21.122Z,958.87
2018-04-10T11:10:21.115Z,958.80
2018-04-10T11:11:21.112Z,958.89
2018-04-10T11:12:21.104Z,958.82
2018-04-10T11:13:21.105Z,958.88
2018-04-10T11:14:21.102Z,958.93
2018-04-10T11:15:21.088Z,959.03
2018-04-10T11:16:21.086Z,958.89
2018-04-10T11:17:21.081Z,959.06
2018-04-10T11:18:21.069Z,959.09
2018-04-10T11:19:21.068Z,959.11
2018-04-10T11:20:21.058Z,959.09
2018-04-10T11:21:21.057Z,959.13
2018-04-10T11:22:21.046Z,959.00
2018-04-10T11:23:21.044Z,959.05
2018-04-10T11:24:21.036Z,959.04
2018-04-10T11:25:21.036Z,959.06
2018-04-10T11:26:21.023Z,959.04
2018-04-10T11:27:21.019Z,959.06
2018-04-10T11:28:21.011Z,959.11
2018-04-10T11:29:21.005Z,959.19
2018-04-10T11:30:21.008Z,959.16
2018-04-10T11:31:21.003Z,959.16
2018-04-10T11:32:20.990Z,959.24
2018-04-10T11:33:20.982Z,959.25
2018-04-10T11:34:20.975Z,959.21
2018-04-10T11:35:20.970Z,959.23
2018-04-10T11:36:20.972Z,959.30
2018-04-10T11:37:20.961Z,959.35
2018-04-10T11:38:20.954Z,959.27
2018-04-10T11:39:20.950Z,959.21
2018-04-10T11:40:20.937Z,959.37
2018-04-10T11:41:20.930Z,959.29
2018-04-10T11:42:20.927Z,959.39
2018-04-10T11:43:20.920Z,959.37
2018-04-10T11:44:20.918Z,959.43
2018-04-10T11:45:20.904Z,959.44
2018-04-10T11:46:20.904Z,959.46
2018-04-10T11:47:20.896Z,959.49
2018-04-10T11:48:20.892Z,959.55
2018-04-10T11:49:20.877Z,959.62
2018-04-10T11:50:20.877Z,959.59
2018-04-10T11:51:20.870Z,959.58
2018-04-10T11:52:20.857Z,959.73
2018-04-10T11:53:20.851Z,959.75
2018-04-10T11:54:20.845Z,959.84
2018-04-10T11:55:20.837Z,959.79
2018-04-10T11:56:20.837Z,959.77
2018-04-10T11:57:20.827Z,959.99
2018-04-10T11:58:20.814Z,960.01
2018-04-10T11:59:20.817Z,960.11
2018-04-10T12:00:20.803Z,960.03
2018-04-10T12:01:20.792Z,960.21
2018-04-10T12:02:20.787Z,960.26
2018-04-10T12:03:20.779Z,960.24
2018-04-10T12:04:20.772Z,960.28
2018-04-10T12:05:20.767Z,960.17
2018-04-10T12:06:20.759Z,960.10
2018-04-10T12:07:20.757Z,960.18
2018-04-10T12:08:20.744Z,960.14
2018-04-10T12:09:20.742Z,960.12
2018-04-10T12:10:20.730Z,960.12
2018-04-10T12:11:20.731Z,960.08
2018-04-10T12:12:20.716Z,960.13
2018-04-10T12:13:20.707Z,960.08
2018-04-10T12:14:20.706Z,959.97
2018-04-10T12:15:20.694Z,960.06
2018-04-10T12:16:20.693Z,960.08
2018-04-10T12:17:20.679Z,960.22
2018-04-10T12:18:20.673Z,960.04
2018-04-10T12:19:20.665Z,960.05
2018-04-10T12:20:20.659Z,960.17
2018-04-10T12:21:20.653Z,960.29
2018-04-10T12:22:20.643Z,960.20
2018-04-10T12:23:20.636Z,960.25
2018-04-10T12:24:20.663Z,960.25
2018-04-10T12:25:20.619Z,960.36
2018-04-10T12:26:20.622Z,960.26
2018-04-10T12:27:20.607Z,960.31
2018-04-10T12:28:20.599Z,960.43